createdAt,value
2023-03-05T00:01:40.529Z,100036.60
2023-03-05T00:04:15.073Z,100033.80
2023-03-05T00:06:43.424Z,100036.40
2023-03-05T00:09:11.324Z,100039.40
2023-03-05T00:11:39.750Z,100033.80
2023-03-05T00:14:07.742Z,100037.40
2023-03-05T00:16:35.542Z,100041.80
2023-03-05T00:19:03.970Z,100034.20
2023-03-05T00:21:42.660Z,100032.80
2023-03-05T00:24:18.134Z,100032.80
2023-03-05T00:26:46.733Z,100025.20
2023-03-05T00:29:18.420Z,100030.60
2023-03-05T00:31:47.145Z,100028.80
2023-03-05T00:34:17.944Z,100020.80
2023-03-05T00:36:49.564Z,100016.80
2023-03-05T00:39:19.949Z,100017.80
2023-03-05T00:41:48.198Z,100017.00
2023-03-05T00:44:15.988Z,100012.40
2023-03-05T00:46:43.820Z,100013.20
2023-03-05T00:49:12.024Z,100005.00
2023-03-05T00:51:39.797Z,100008.60
2023-03-05T00:54:07.686Z,100003.00
2023-03-05T00:56:35.537Z,99994.60
2023-03-05T00:59:03.707Z,99993.40
2023-03-05T01:01:33.037Z,99993.80
2023-03-05T01:04:01.270Z,99991.40
2023-03-05T01:06:29.616Z,99990.20
2023-03-05T01:08:57.729Z,99983.40
2023-03-05T01:11:28.206Z,99978.20
2023-03-05T01:13:56.073Z,99981.20
2023-03-05T01:16:26.253Z,99979.40
2023-03-05T01:18:54.793Z,99975.60
2023-03-05T01:21:22.690Z,99973.40
2023-03-05T01:23:50.532Z,99971.00
2023-03-05T01:26:20.359Z,99971.60
2023-03-05T01:28:48.188Z,99970.60
2023-03-05T01:31:16.183Z,99969.60
2023-03-05T01:33:44.296Z,99968.80
2023-03-05T01:36:16.838Z,99964.40
2023-03-05T01:38:47.536Z,99967.40
2023-03-05T01:41:17.442Z,99963.60
2023-03-05T01:43:47.821Z,99962.40
2023-03-05T01:46:38.272Z,99957.40
2023-03-05T01:49:10.409Z,99961.00
2023-03-05T01:52:06.777Z,99957.40
2023-03-05T01:54:46.780Z,99957.60
2023-03-05T01:57:19.943Z,99953.60
2023-03-05T01:59:55.716Z,99947.80
2023-03-05T02:02:24.178Z,99946.00
2023-03-05T02:05:01.451Z,99942.40
2023-03-05T02:07:31.492Z,99941.00
2023-03-05T02:10:02.633Z,99944.40
2023-03-05T02:12:30.772Z,99945.40
2023-03-05T02:14:59.489Z,99944.40
2023-03-05T02:17:28.206Z,99941.40
2023-03-05T02:20:06.785Z,99938.20
2023-03-05T02:22:34.524Z,99939.80
2023-03-05T02:25:02.505Z,99939.60
2023-03-05T02:27:35.664Z,99939.20
2023-03-05T02:30:04.001Z,99939.20
2023-03-05T02:32:31.867Z,99937.40
2023-03-05T02:34:59.666Z,99929.40
2023-03-05T02:37:28.593Z,99928.00
2023-03-05T02:39:56.366Z,99925.20
2023-03-05T02:42:24.294Z,99920.40
2023-03-05T02:44:52.134Z,99922.80
2023-03-05T02:47:19.906Z,99918.40
2023-03-05T02:49:47.879Z,99917.60
2023-03-05T02:52:15.672Z,99918.80
2023-03-05T02:54:43.493Z,99916.60
2023-03-05T02:57:11.353Z,99914.60
2023-03-05T02:59:39.151Z,99912.20
2023-03-05T03:02:06.974Z,99909.20
2023-03-05T03:04:34.856Z,99910.80
2023-03-05T03:07:02.669Z,99904.60
2023-03-05T03:09:30.467Z,99902.40
2023-03-05T03:11:58.337Z,99905.80
2023-03-05T03:14:26.355Z,99905.80
2023-03-05T03:16:54.163Z,99908.00
2023-03-05T03:19:21.967Z,99906.00
2023-03-05T03:21:50.327Z,99898.40
2023-03-05T03:24:18.135Z,99901.40
2023-03-05T03:26:46.529Z,99899.00
2023-03-05T03:29:14.321Z,99902.00
2023-03-05T03:31:42.291Z,99895.00
2023-03-05T03:34:10.111Z,99893.80
2023-03-05T03:36:39.343Z,99895.40
2023-03-05T03:39:09.901Z,99892.00
2023-03-05T03:41:46.337Z,99890.00
2023-03-05T03:44:14.843Z,99889.20
2023-03-05T03:46:44.391Z,99882.60
2023-03-05T03:49:24.697Z,99880.60
2023-03-05T03:51:54.728Z,99879.20
2023-03-05T03:54:23.044Z,99879.80
2023-03-05T03:56:51.127Z,99875.40
2023-03-05T03:59:20.292Z,99873.60
2023-03-05T04:01:48.088Z,99870.00
2023-03-05T04:04:16.058Z,99868.40
2023-03-05T04:06:44.043Z,99867.00
2023-03-05T04:09:11.833Z,99867.60
2023-03-05T04:11:39.611Z,99868.00
2023-03-05T04:14:07.422Z,99858.80
2023-03-05T04:16:35.248Z,99858.60
2023-03-05T04:19:03.063Z,99855.00
2023-03-05T04:21:30.925Z,99853.20
2023-03-05T04:23:58.724Z,99850.60
2023-03-05T04:26:26.608Z,99852.20
2023-03-05T04:28:54.329Z,99849.00
2023-03-05T04:31:22.192Z,99844.60
2023-03-05T04:33:49.997Z,99846.40
2023-03-05T04:36:17.807Z,99842.00
2023-03-05T04:38:45.628Z,99839.40
2023-03-05T04:41:13.419Z,99834.00
2023-03-05T04:43:41.244Z,99835.00
2023-03-05T04:46:09.085Z,99837.20
2023-03-05T04:48:36.818Z,99832.00
2023-03-05T04:51:05.070Z,99829.00
2023-03-05T04:53:32.939Z,99831.60
2023-03-05T04:56:01.655Z,99823.60
2023-03-05T04:58:29.578Z,99817.00
2023-03-05T05:01:05.818Z,99818.00
2023-03-05T05:03:34.602Z,99817.20
2023-03-05T05:06:02.629Z,99811.00
2023-03-05T05:08:31.045Z,99808.20
2023-03-05T05:11:01.869Z,99805.80
2023-03-05T05:13:30.990Z,99807.00
2023-03-05T05:15:59.036Z,99801.60
2023-03-05T05:18:27.149Z,99801.60
2023-03-05T05:20:54.961Z,99802.20
2023-03-05T05:23:22.787Z,99799.60
2023-03-05T05:26:02.029Z,99796.00
2023-03-05T05:28:30.071Z,99797.20
2023-03-05T05:30:57.979Z,99796.60
2023-03-05T05:33:27.046Z,99801.00
2023-03-05T05:35:54.877Z,99798.60
2023-03-05T05:38:22.712Z,99803.60
2023-03-05T05:40:50.496Z,99803.00
2023-03-05T05:43:18.231Z,99800.60
2023-03-05T05:45:46.153Z,99797.80
2023-03-05T05:48:16.249Z,99803.00
2023-03-05T05:50:43.957Z,99796.00
2023-03-05T05:53:11.733Z,99799.80
2023-03-05T05:55:42.268Z,99799.40
2023-03-05T05:58:10.008Z,99801.60
2023-03-05T06:00:38.494Z,99798.80
2023-03-05T06:03:06.355Z,99803.60
2023-03-05T06:05:34.943Z,99803.00
2023-03-05T06:08:02.706Z,99806.80
2023-03-05T06:10:30.520Z,99798.60
2023-03-05T06:12:58.438Z,99796.20
2023-03-05T06:15:26.261Z,99800.20
2023-03-05T06:17:54.638Z,99800.80
2023-03-05T06:20:23.219Z,99797.00
2023-03-05T06:22:51.985Z,99791.20
2023-03-05T06:25:19.937Z,99788.00
2023-03-05T06:27:47.698Z,99780.20
2023-03-05T06:30:15.706Z,99777.80
2023-03-05T06:32:43.449Z,99770.40
2023-03-05T06:35:11.950Z,99756.60
2023-03-05T06:37:39.759Z,99760.80
2023-03-05T06:40:08.769Z,99764.40
2023-03-05T06:42:36.558Z,99761.00
2023-03-05T06:45:05.109Z,99754.60
2023-03-05T06:47:33.339Z,99752.00
2023-03-05T06:50:01.103Z,99747.40
2023-03-05T06:52:29.130Z,99745.40
2023-03-05T06:54:56.930Z,99740.00
2023-03-05T06:57:24.666Z,99745.20
2023-03-05T06:59:52.460Z,99734.20
2023-03-05T07:02:20.292Z,99726.40
2023-03-05T07:04:48.154Z,99717.40
2023-03-05T07:07:16.033Z,99719.20
2023-03-05T07:09:45.906Z,99719.00
2023-03-05T07:12:13.734Z,99714.40
2023-03-05T07:14:41.519Z,99703.00
2023-03-05T07:17:09.266Z,99693.60
2023-03-05T07:19:38.138Z,99691.60
2023-03-05T07:22:07.519Z,99707.60
2023-03-05T07:24:35.629Z,99715.60
2023-03-05T07:27:03.431Z,99726.60
2023-03-05T07:29:31.230Z,99727.00
2023-03-05T07:31:59.037Z,99716.60
2023-03-05T07:34:27.525Z,99711.80
2023-03-05T07:36:55.270Z,99712.00
2023-03-05T07:39:23.938Z,99707.60
2023-03-05T07:41:52.621Z,99705.40
2023-03-05T07:44:27.145Z,99701.80
2023-03-05T07:46:54.919Z,99708.20
2023-03-05T07:49:23.800Z,99704.00
2023-03-05T07:51:51.644Z,99699.80
2023-03-05T07:54:19.441Z,99702.40
2023-03-05T07:56:47.162Z,99711.00
2023-03-05T07:59:14.965Z,99716.60
2023-03-05T08:01:42.783Z,99715.80
2023-03-05T08:04:10.997Z,99713.40
2023-03-05T08:06:41.374Z,99710.40
2023-03-05T08:09:09.340Z,99715.40
2023-03-05T08:11:37.089Z,99714.80
2023-03-05T08:14:04.939Z,99708.00
2023-03-05T08:16:32.721Z,99704.40
2023-03-05T08:19:00.469Z,99706.00
2023-03-05T08:21:34.972Z,99708.80
2023-03-05T08:24:06.147Z,99702.80
2023-03-05T08:26:38.466Z,99704.40
2023-03-05T08:29:08.650Z,99701.60
2023-03-05T08:31:38.261Z,99702.00
2023-03-05T08:34:06.864Z,99701.60
2023-03-05T08:36:34.733Z,99700.40
2023-03-05T08:39:03.455Z,99701.00
2023-03-05T08:41:31.286Z,99701.80
2023-03-05T08:43:59.149Z,99705.60
2023-03-05T08:46:27.047Z,99713.60
2023-03-05T08:48:54.881Z,99698.80
2023-03-05T08:51:25.923Z,99701.00
2023-03-05T08:53:56.061Z,99699.80
2023-03-05T08:56:23.901Z,99699.80
2023-03-05T08:58:53.029Z,99693.80
2023-03-05T09:01:21.197Z,99696.40
2023-03-05T09:03:49.020Z,99698.60
2023-03-05T09:06:16.896Z,99697.40
2023-03-05T09:08:44.684Z,99699.80
2023-03-05T09:11:13.860Z,99698.40
2023-03-05T09:13:41.649Z,99699.60
2023-03-05T09:16:14.251Z,99698.20
2023-03-05T09:18:42.793Z,99702.80
2023-03-05T09:21:15.548Z,99697.80
2023-03-05T09:23:44.649Z,99695.60
2023-03-05T09:26:15.715Z,99697.80
2023-03-05T09:28:43.527Z,99694.60
2023-03-05T09:31:11.833Z,99696.20
2023-03-05T09:33:40.431Z,99702.60
2023-03-05T09:36:34.951Z,99700.20
2023-03-05T09:39:04.179Z,99702.60
2023-03-05T09:42:06.836Z,99698.80
2023-03-05T09:44:50.969Z,99701.00
2023-03-05T09:47:59.346Z,99694.00
2023-03-05T09:50:48.308Z,99696.80
2023-03-05T09:53:28.255Z,99697.20
2023-03-05T09:56:00.328Z,99693.60
2023-03-05T09:58:40.713Z,99692.40
2023-03-05T10:01:33.434Z,99691.80
2023-03-05T10:04:18.556Z,99691.80
2023-03-05T10:07:15.522Z,99683.40
2023-03-05T10:09:49.454Z,99687.40
2023-03-05T10:12:44.273Z,99683.80
2023-03-05T10:15:23.376Z,99685.40
2023-03-05T10:18:17.751Z,99681.00
2023-03-05T10:20:53.955Z,99679.00
2023-03-05T10:23:29.687Z,99674.80
2023-03-05T10:26:23.484Z,99675.40
2023-03-05T10:29:37.816Z,99675.00
2023-03-05T10:32:39.304Z,99674.20
2023-03-05T10:35:55.546Z,99676.80
2023-03-05T10:38:50.913Z,99667.40
2023-03-05T10:41:44.218Z,99663.60
2023-03-05T10:44:36.280Z,99663.00
2023-03-05T10:47:16.513Z,99658.80
2023-03-05T10:49:51.856Z,99660.60
2023-03-05T10:52:29.274Z,99655.80
2023-03-05T10:54:57.056Z,99654.60
2023-03-05T10:57:28.177Z,99649.00
2023-03-05T11:00:05.277Z,99648.60
2023-03-05T11:02:34.244Z,99642.60
2023-03-05T11:05:03.633Z,99645.80
2023-03-05T11:07:36.629Z,99641.20
2023-03-05T11:10:15.626Z,99639.60
2023-03-05T11:12:44.356Z,99637.40
2023-03-05T11:15:12.001Z,99638.20
2023-03-05T11:18:02.973Z,99635.00
2023-03-05T11:20:34.297Z,99634.60
2023-03-05T11:23:03.872Z,99631.80
2023-03-05T11:25:34.132Z,99629.80
2023-03-05T11:28:03.547Z,99632.00
2023-03-05T11:30:33.516Z,99631.80
2023-03-05T11:33:20.904Z,99633.40
2023-03-05T11:35:51.298Z,99631.60
2023-03-05T11:38:28.051Z,99634.20
2023-03-05T11:40:57.217Z,99632.40
2023-03-05T11:43:26.185Z,99628.40
2023-03-05T11:45:58.700Z,99624.00
2023-03-05T11:48:37.787Z,99620.20
2023-03-05T11:51:19.623Z,99610.60
2023-03-05T11:53:52.303Z,99603.20
2023-03-05T11:56:36.614Z,99599.40
2023-03-05T11:59:19.661Z,99599.40
2023-03-05T12:01:54.375Z,99594.40
2023-03-05T12:04:23.150Z,99592.80
2023-03-05T12:07:03.187Z,99592.20
2023-03-05T12:09:47.871Z,99585.20
2023-03-05T12:12:40.158Z,99583.20
2023-03-05T12:15:38.833Z,99580.60
2023-03-05T12:18:57.581Z,99577.80
2023-03-05T12:21:43.572Z,99578.40
2023-03-05T12:24:25.491Z,99581.00
2023-03-05T12:27:03.914Z,99578.40
2023-03-05T12:29:44.206Z,99577.40
2023-03-05T12:32:33.304Z,99576.00
2023-03-05T12:35:24.751Z,99575.00
2023-03-05T12:37:52.467Z,99573.20
2023-03-05T12:40:30.808Z,99568.80
2023-03-05T12:43:00.167Z,99566.40
2023-03-05T12:45:40.522Z,99562.60
2023-03-05T12:48:12.623Z,99562.20
2023-03-05T12:50:40.400Z,99557.20
2023-03-05T12:53:15.922Z,99559.80
2023-03-05T12:55:58.092Z,99555.20
2023-03-05T12:58:45.457Z,99552.60
2023-03-05T13:01:47.213Z,99551.80
2023-03-05T13:04:21.745Z,99550.40
2023-03-05T13:07:03.455Z,99548.60
2023-03-05T13:09:36.548Z,99545.00
2023-03-05T13:12:12.739Z,99545.60
2023-03-05T13:14:46.024Z,99540.20
2023-03-05T13:17:52.814Z,99542.20
2023-03-05T13:20:27.655Z,99536.80
2023-03-05T13:23:21.386Z,99539.20
2023-03-05T13:26:08.995Z,99541.80
2023-03-05T13:28:39.353Z,99539.40
2023-03-05T13:31:19.409Z,99537.40
2023-03-05T13:33:59.919Z,99537.60
2023-03-05T13:36:27.939Z,99534.60
2023-03-05T13:38:55.925Z,99532.60
2023-03-05T13:41:28.268Z,99535.60
2023-03-05T13:44:01.953Z,99530.80
2023-03-05T13:46:39.161Z,99528.40
2023-03-05T13:49:26.618Z,99522.20
2023-03-05T13:51:57.232Z,99525.20
2023-03-05T13:54:27.124Z,99521.00
2023-03-05T13:57:05.806Z,99519.20
2023-03-05T13:59:38.831Z,99515.20
2023-03-05T14:02:21.117Z,99510.00
2023-03-05T14:04:48.979Z,99507.80
2023-03-05T14:07:40.869Z,99512.00
2023-03-05T14:10:34.743Z,99505.20
2023-03-05T14:13:11.669Z,99504.20
2023-03-05T14:15:40.128Z,99505.80
2023-03-05T14:18:11.856Z,99500.20
2023-03-05T14:20:59.742Z,99490.80
2023-03-05T14:23:41.047Z,99486.20
2023-03-05T14:26:37.563Z,99484.20
2023-03-05T14:29:11.466Z,99483.60
2023-03-05T14:31:51.375Z,99480.00
2023-03-05T14:34:42.837Z,99487.00
2023-03-05T14:37:34.287Z,99481.00
2023-03-05T14:40:21.722Z,99485.60
2023-03-05T14:43:01.235Z,99481.20
2023-03-05T14:45:43.711Z,99481.40
2023-03-05T14:48:15.150Z,99488.60
2023-03-05T14:50:56.426Z,99479.60
2023-03-05T14:53:29.539Z,99480.20
2023-03-05T14:55:57.418Z,99476.80
2023-03-05T14:58:32.387Z,99475.40
2023-03-05T15:01:00.242Z,99474.00
2023-03-05T15:03:28.236Z,99476.80
2023-03-05T15:05:58.813Z,99472.00
2023-03-05T15:08:31.026Z,99473.00
2023-03-05T15:11:00.696Z,99464.60
2023-03-05T15:13:28.630Z,99462.20
2023-03-05T15:15:56.527Z,99464.40
2023-03-05T15:18:24.794Z,99464.80
2023-03-05T15:20:53.059Z,99472.00
2023-03-05T15:23:20.900Z,99471.60
2023-03-05T15:25:48.867Z,99474.20
2023-03-05T15:28:16.941Z,99471.60
2023-03-05T15:30:47.640Z,99466.60
2023-03-05T15:33:17.527Z,99466.80
2023-03-05T15:35:45.522Z,99472.80
2023-03-05T15:38:13.600Z,99474.40
2023-03-05T15:40:41.565Z,99473.80
2023-03-05T15:43:10.085Z,99480.60
2023-03-05T15:45:37.900Z,99481.80
2023-03-05T15:48:06.095Z,99481.00
2023-03-05T15:50:33.891Z,99484.80
2023-03-05T15:53:04.818Z,99482.00
2023-03-05T15:55:32.594Z,99481.00
2023-03-05T15:58:00.620Z,99487.40
2023-03-05T16:00:31.071Z,99483.20
2023-03-05T16:02:59.013Z,99482.60
2023-03-05T16:05:26.975Z,99484.40
2023-03-05T16:07:55.552Z,99482.20
2023-03-05T16:10:26.661Z,99485.60
2023-03-05T16:13:10.185Z,99485.00
2023-03-05T16:15:41.038Z,99485.40
2023-03-05T16:18:15.444Z,99482.40
2023-03-05T16:20:43.593Z,99489.00
2023-03-05T16:23:11.514Z,99494.20
2023-03-05T16:25:39.438Z,99497.60
2023-03-05T16:28:07.571Z,99498.20
2023-03-05T16:30:35.677Z,99495.60
2023-03-05T16:33:03.928Z,99499.40
2023-03-05T16:35:31.849Z,99496.80
2023-03-05T16:37:59.867Z,99496.00
2023-03-05T16:40:44.272Z,99499.80
2023-03-05T16:43:15.911Z,99499.20
2023-03-05T16:45:43.737Z,99504.80
2023-03-05T16:48:11.546Z,99508.20
2023-03-05T16:50:39.338Z,99512.60
2023-03-05T16:53:07.588Z,99510.80
2023-03-05T16:55:37.552Z,99513.60
2023-03-05T16:58:06.022Z,99513.40
2023-03-05T17:00:33.901Z,99518.40
2023-03-05T17:03:01.724Z,99521.40
2023-03-05T17:05:29.898Z,99521.20
2023-03-05T17:07:58.140Z,99520.40
2023-03-05T17:10:26.037Z,99519.40
2023-03-05T17:12:54.531Z,99517.40
2023-03-05T17:15:23.756Z,99523.20
2023-03-05T17:17:53.712Z,99523.20
2023-03-05T17:20:22.064Z,99525.20
2023-03-05T17:22:49.977Z,99530.00
2023-03-05T17:25:18.661Z,99526.60
2023-03-05T17:27:47.788Z,99527.60
2023-03-05T17:30:16.787Z,99527.00
2023-03-05T17:32:45.489Z,99526.20
2023-03-05T17:35:22.406Z,99522.80
2023-03-05T17:37:53.495Z,99521.20
2023-03-05T17:40:25.619Z,99515.20
2023-03-05T17:42:55.508Z,99522.20
2023-03-05T17:45:23.359Z,99518.80
2023-03-05T17:47:51.755Z,99520.60
2023-03-05T17:50:20.476Z,99517.20
2023-03-05T17:52:48.365Z,99521.40
2023-03-05T17:55:17.784Z,99517.40
2023-03-05T17:57:47.734Z,99515.80
2023-03-05T18:00:22.362Z,99517.40
2023-03-05T18:02:51.021Z,99515.60
2023-03-05T18:05:23.416Z,99510.60
2023-03-05T18:07:52.139Z,99513.40
2023-03-05T18:10:22.166Z,99519.80
2023-03-05T18:12:50.596Z,99516.80
2023-03-05T18:15:24.354Z,99517.80
2023-03-05T18:17:52.950Z,99518.20
2023-03-05T18:20:28.876Z,99520.80
2023-03-05T18:22:59.173Z,99515.40
2023-03-05T18:25:32.663Z,99512.60
2023-03-05T18:28:04.217Z,99516.00
2023-03-05T18:30:32.769Z,99518.80
2023-03-05T18:33:01.380Z,99517.00
2023-03-05T18:35:29.748Z,99518.00
2023-03-05T18:37:58.333Z,99518.60
2023-03-05T18:40:29.597Z,99516.40
2023-03-05T18:43:00.794Z,99523.40
2023-03-05T18:45:30.708Z,99519.40
2023-03-05T18:47:58.812Z,99519.60
2023-03-05T18:50:28.490Z,99521.80
2023-03-05T18:52:57.555Z,99517.80
2023-03-05T18:55:28.293Z,99523.00
2023-03-05T18:57:56.804Z,99516.20
2023-03-05T19:00:29.304Z,99514.40
2023-03-05T19:02:58.218Z,99519.60
2023-03-05T19:05:26.772Z,99514.00
2023-03-05T19:07:56.178Z,99516.20
2023-03-05T19:10:24.351Z,99513.00
2023-03-05T19:13:05.317Z,99514.00
2023-03-05T19:15:34.091Z,99511.20
2023-03-05T19:18:02.045Z,99513.20
2023-03-05T19:20:29.835Z,99516.20
2023-03-05T19:22:57.701Z,99516.00
2023-03-05T19:25:25.653Z,99517.20
2023-03-05T19:27:53.572Z,99516.20
2023-03-05T19:30:21.506Z,99520.40
2023-03-05T19:32:49.730Z,99519.20
2023-03-05T19:35:18.402Z,99519.40
2023-03-05T19:37:46.336Z,99522.60
2023-03-05T19:40:15.097Z,99525.20
2023-03-05T19:42:42.977Z,99525.80
2023-03-05T19:45:11.084Z,99529.00
2023-03-05T19:47:39.413Z,99524.60
2023-03-05T19:50:08.255Z,99526.00
2023-03-05T19:52:36.047Z,99523.20
2023-03-05T19:55:04.705Z,99524.80
2023-03-05T19:57:34.999Z,99522.80
2023-03-05T20:00:02.827Z,99521.80
2023-03-05T20:02:33.096Z,99522.60
2023-03-05T20:05:01.309Z,99521.80
2023-03-05T20:07:29.269Z,99524.00
2023-03-05T20:09:57.191Z,99525.60
2023-03-05T20:12:25.241Z,99524.00
2023-03-05T20:14:53.184Z,99519.60
2023-03-05T20:17:21.127Z,99526.40
2023-03-05T20:19:49.076Z,99529.00
2023-03-05T20:22:16.976Z,99526.80
2023-03-05T20:24:44.886Z,99527.00
2023-03-05T20:27:13.239Z,99525.40
2023-03-05T20:29:41.203Z,99519.00
2023-03-05T20:32:09.163Z,99521.60
2023-03-05T20:34:37.221Z,99523.80
2023-03-05T20:37:05.942Z,99523.20
2023-03-05T20:39:34.055Z,99519.80
2023-03-05T20:42:01.922Z,99522.40
2023-03-05T20:44:29.905Z,99522.60
2023-03-05T20:47:12.537Z,99522.00
2023-03-05T20:49:40.482Z,99516.80
2023-03-05T20:52:08.396Z,99519.20
2023-03-05T20:54:36.922Z,99517.60
2023-03-05T20:57:04.827Z,99517.40
2023-03-05T20:59:32.708Z,99524.80
2023-03-05T21:02:00.613Z,99518.00
2023-03-05T21:04:28.419Z,99515.00
2023-03-05T21:06:56.560Z,99516.20
2023-03-05T21:09:24.758Z,99513.20
2023-03-05T21:11:52.670Z,99512.40
2023-03-05T21:14:20.554Z,99510.60
2023-03-05T21:16:48.591Z,99517.20
2023-03-05T21:19:17.559Z,99517.80
2023-03-05T21:21:45.763Z,99512.20
2023-03-05T21:24:13.879Z,99513.00
2023-03-05T21:26:42.311Z,99511.60
2023-03-05T21:29:10.141Z,99508.60
2023-03-05T21:31:38.133Z,99509.60
2023-03-05T21:34:05.935Z,99507.00
2023-03-05T21:36:33.748Z,99501.00
2023-03-05T21:39:01.594Z,99500.40
2023-03-05T21:41:29.827Z,99504.40
2023-03-05T21:43:59.157Z,99503.40
2023-03-05T21:46:27.077Z,99499.80
2023-03-05T21:48:57.716Z,99502.20
2023-03-05T21:51:30.671Z,99504.60
2023-03-05T21:53:58.781Z,99504.40
2023-03-05T21:56:28.066Z,99496.60
2023-03-05T21:58:55.812Z,99498.00
2023-03-05T22:01:24.012Z,99499.40
2023-03-05T22:03:52.051Z,99492.60
2023-03-05T22:06:21.963Z,99492.60
2023-03-05T22:08:49.910Z,99493.60
2023-03-05T22:11:19.410Z,99494.20
2023-03-05T22:13:47.383Z,99490.00
2023-03-05T22:16:27.042Z,99491.60
2023-03-05T22:18:55.715Z,99500.60
2023-03-05T22:21:27.384Z,99497.40
2023-03-05T22:23:59.475Z,99500.20
2023-03-05T22:26:38.825Z,99499.40
2023-03-05T22:29:11.767Z,99499.00
2023-03-05T22:31:40.985Z,99494.00
2023-03-05T22:34:09.123Z,99497.00
2023-03-05T22:36:37.247Z,99492.00
2023-03-05T22:39:05.252Z,99493.60
2023-03-05T22:41:33.357Z,99493.20
2023-03-05T22:44:01.397Z,99494.40
2023-03-05T22:46:29.432Z,99489.40
2023-03-05T22:48:57.780Z,99492.80
2023-03-05T22:51:25.720Z,99493.20
2023-03-05T22:53:53.704Z,99499.80
2023-03-05T22:56:21.650Z,99492.60
2023-03-05T22:58:49.488Z,99496.00
2023-03-05T23:01:22.264Z,99492.40
2023-03-05T23:03:58.710Z,99489.20
2023-03-05T23:06:26.518Z,99487.20
2023-03-05T23:08:54.365Z,99488.40
2023-03-05T23:11:22.238Z,99489.40
2023-03-05T23:13:50.006Z,99488.00
2023-03-05T23:16:17.835Z,99487.80
2023-03-05T23:18:45.751Z,99491.80
2023-03-05T23:21:13.590Z,99491.20
2023-03-05T23:23:41.318Z,99492.40
2023-03-05T23:26:09.069Z,99491.60
2023-03-05T23:28:37.139Z,99489.80
2023-03-05T23:31:05.769Z,99486.80
2023-03-05T23:33:33.646Z,99486.40
2023-03-05T23:36:01.504Z,99485.20
2023-03-05T23:38:30.517Z,99483.20
2023-03-05T23:41:01.343Z,99481.00
2023-03-05T23:43:30.443Z,99487.80
2023-03-05T23:46:00.442Z,99488.40
2023-03-05T23:48:29.916Z,99483.40
2023-03-05T23:50:57.882Z,99484.60
2023-03-05T23:53:29.489Z,99478.60
2023-03-05T23:55:57.624Z,99480.40
2023-03-05T23:58:25.712Z,99481.80
